Time;durP1;ratioP1;P1;durP2;ratioP2;P2;SDS_P1;SDS_P2;PMS_P1;PMS_P2;Temp;Humidity;BMP_temperature;BMP_pressure;BME280_temperature;BME280_humidity;BME280_pressure;Samples;Min_cycle;Max_cycle;Signal;HPM_P1;HPM_P2
2021/12/28 00:00:44;;;;;;;;;;;;;;;;;;2082219;28;20406;-84
2021/12/28 00:01:44;;;;;;;;;;;;;;;;;;2082010;28;20012;-84
2021/12/28 00:02:46;;;;;;;;;;;;;;;;;;2082185;28;20350;-84
2021/12/28 00:03:46;;;;;;;;;;;;;;;;;;2081982;28;19914;-84
2021/12/28 00:04:47;;;;;;;;;;;;;;;;;;2082124;28;19923;-84
2021/12/28 00:05:47;;;;;;;;;;;;;;;;;;2081969;28;19927;-84
2021/12/28 00:06:47;;;;;;;;;;;;;;;;;;2082112;28;19914;-84
2021/12/28 00:07:48;;;;;;;;;;;;;;;;;;2082055;28;20011;-84
2021/12/28 00:08:48;;;;;;;;;;;;;;;;;;2082073;28;20000;-84
2021/12/28 00:09:48;;;;;;;;;;;;;;;;;;2082021;28;19913;-84
2021/12/28 00:10:49;;;;;;;;;;;;;;;;;;2081570;28;20007;-84
2021/12/28 00:11:51;;;;;;;;;;;;;;;;;;2081520;28;19917;-84
2021/12/28 00:12:54;;;;;;;;;;;;;;;;;;2082087;28;19972;-84
2021/12/28 00:14:00;;;;;;;;;;;;;;;;;;2082010;28;20011;-83
2021/12/28 00:15:32;;;;;;;;;;;;;;;;;;2082054;28;19921;-83
2021/12/28 00:17:58;;;;;;;;;;;;;;;;;;2073158;28;19913;-85
2021/12/28 00:18:01;;;;;;;;;;;;;;;;;;2076219;28;20373;-85
2021/12/28 00:19:02;;;;;;;;;;;;;;;;;;2081954;28;19921;-85
2021/12/28 00:20:03;;;;;;;;;;;;;;;;;;2073282;28;19952;-85
2021/12/28 00:21:04;;;;;;;;;;;;;;;;;;2073357;28;19979;-85
2021/12/28 00:22:05;;;;;;;;;;;;;;;;;;2073203;28;19971;-86
2021/12/28 00:23:07;;;;;;;;;;;;;;;;;;2073304;28;19913;-84
2021/12/28 00:24:07;;;;;;;;;;;;;;;;;;2082134;28;20422;-84
2021/12/28 00:25:08;;;;;;;;;;;;;;;;;;2073291;28;20008;-84
2021/12/28 00:26:10;;;;;;;;;;;;;;;;;;2073427;28;19925;-85
2021/12/28 00:27:11;;;;;;;;;;;;;;;;;;2081910;28;20405;-78
2021/12/28 00:28:11;;;;;;;;;;;;;;;;;;2081957;28;19924;-78
2021/12/28 00:29:11;;;;;;;;;;;;;;;;;;2081813;28;20003;-76
2021/12/28 00:30:12;;;;;;;;;;;;;;;;;;2081801;28;20008;-78
2021/12/28 00:31:13;;;;;;;;;;;;;;;;;;2081759;28;19905;-78
2021/12/28 00:32:13;;;;;;;;;;;;;;;;;;2082112;28;20032;-76
2021/12/28 00:33:14;;;;;;;;;;;;;;;;;;2081818;28;20371;-79
2021/12/28 00:34:14;;;;;;;;;;;;;;;;;;2081843;28;19931;-79
2021/12/28 00:35:14;;;;;;;;;;;;;;;;;;2081837;28;19920;-78
2021/12/28 00:36:15;;;;;;;;;;;;;;;;;;2081819;28;19986;-79
2021/12/28 00:37:15;;;;;;;;;;;;;;;;;;2081284;28;19913;-78
2021/12/28 00:38:21;;;;;;;;;;;;;;;;;;2081538;28;19923;-78
2021/12/28 00:39:21;;;;;;;;;;;;;;;;;;2073170;28;20024;-78
2021/12/28 00:40:21;;;;;;;;;;;;;;;;;;2073374;28;20471;-76
2021/12/28 00:41:21;;;;;;;;;;;;;;;;;;2081775;28;20008;-79
2021/12/28 00:42:22;;;;;;;;;;;;;;;;;;2081220;28;19921;-78
2021/12/28 00:43:23;;;;;;;;;;;;;;;;;;2081387;28;20002;-76
2021/12/28 00:44:23;;;;;;;;;;;;;;;;;;2081848;28;19924;-78
2021/12/28 00:45:24;;;;;;;;;;;;;;;;;;2081277;28;19936;-78
2021/12/28 00:46:24;;;;;;;;;;;;;;;;;;2081333;28;19913;-78
2021/12/28 00:47:27;;;;;;;;;;;;;;;;;;2081919;28;20336;-77
2021/12/28 00:48:27;;;;;;;;;;;;;;;;;;2081899;28;19949;-77
2021/12/28 00:49:27;;;;;;;;;;;;;;;;;;2081676;28;19913;-77
2021/12/28 00:50:28;;;;;;;;;;;;;;;;;;2081744;28;19923;-76
2021/12/28 00:51:28;;;;;;;;;;;;;;;;;;2081576;28;20271;-77
2021/12/28 00:52:28;;;;;;;;;;;;;;;;;;2081859;28;19936;-77
2021/12/28 00:53:28;;;;;;;;;;;;;;;;;;2081795;28;20270;-77
2021/12/28 00:54:29;;;;;;;;;;;;;;;;;;2080750;28;20613;-77
2021/12/28 00:55:29;;;;;;;;;;;;;;;;;;2081237;28;20382;-78
2021/12/28 00:56:29;;;;;;;;;;;;;;;;;;2081283;28;19913;-77
2021/12/28 00:57:30;;;;;;;;;;;;;;;;;;2073051;28;19914;-78
2021/12/28 00:58:31;;;;;;;;;;;;;;;;;;2073024;28;20302;-79
2021/12/28 00:59:32;;;;;;;;;;;;;;;;;;2081853;28;19920;-77
2021/12/28 01:00:34;;;;;;;;;;;;;;;;;;2081643;28;19909;-79
2021/12/28 01:01:34;;;;;;;;;;;;;;;;;;2081710;28;20377;-76
2021/12/28 01:02:37;;;;;;;;;;;;;;;;;;2081703;28;19956;-76
2021/12/28 01:03:38;;;;;;;;;;;;;;;;;;2081650;28;19937;-78
2021/12/28 01:04:38;;;;;;;;;;;;;;;;;;2081678;28;19913;-76
2021/12/28 01:05:38;;;;;;;;;;;;;;;;;;2081451;28;19917;-77
2021/12/28 01:06:39;;;;;;;;;;;;;;;;;;2081533;28;19905;-77
2021/12/28 01:07:39;;;;;;;;;;;;;;;;;;2081777;28;19979;-77
2021/12/28 01:08:45;;;;;;;;;;;;;;;;;;2081639;28;19982;-77
2021/12/28 01:09:48;;;;;;;;;;;;;;;;;;2081045;28;19920;-78
2021/12/28 01:10:51;;;;;;;;;;;;;;;;;;2081057;28;20377;-77
2021/12/28 01:11:51;;;;;;;;;;;;;;;;;;2081426;28;20386;-77
2021/12/28 01:12:52;;;;;;;;;;;;;;;;;;2081645;28;19913;-77
2021/12/28 01:13:53;;;;;;;;;;;;;;;;;;2073136;28;19913;-77
2021/12/28 01:14:53;;;;;;;;;;;;;;;;;;2073034;28;19947;-77
2021/12/28 01:15:54;;;;;;;;;;;;;;;;;;2081477;28;19963;-78
2021/12/28 01:16:54;;;;;;;;;;;;;;;;;;2081562;28;19913;-78
2021/12/28 01:17:55;;;;;;;;;;;;;;;;;;2081704;28;19913;-78
2021/12/28 01:18:55;;;;;;;;;;;;;;;;;;2081517;28;19917;-78
2021/12/28 01:19:55;;;;;;;;;;;;;;;;;;2081652;28;19995;-78
2021/12/28 01:20:58;;;;;;;;;;;;;;;;;;2081501;28;19914;-78
2021/12/28 01:22:01;;;;;;;;;;;;;;;;;;2081737;28;19913;-77
2021/12/28 01:23:02;;;;;;;;;;;;;;;;;;2081534;28;19975;-77
2021/12/28 01:24:03;;;;;;;;;;;;;;;;;;2081647;28;19923;-77
2021/12/28 01:25:04;;;;;;;;;;;;;;;;;;2080899;28;20432;-77
2021/12/28 01:26:05;;;;;;;;;;;;;;;;;;2081240;28;19913;-77
2021/12/28 01:27:05;;;;;;;;;;;;;;;;;;2081580;28;19978;-78
2021/12/28 01:28:06;;;;;;;;;;;;;;;;;;2081475;28;19924;-78
2021/12/28 01:29:06;;;;;;;;;;;;;;;;;;2081555;28;20286;-78
2021/12/28 01:30:14;;;;;;;;;;;;;;;;;;2081069;28;19924;-77
2021/12/28 01:31:14;;;;;;;;;;;;;;;;;;2080976;28;20046;-77
2021/12/28 01:32:15;;;;;;;;;;;;;;;;;;2081499;28;19913;-77
2021/12/28 01:33:15;;;;;;;;;;;;;;;;;;2081495;28;19914;-76
2021/12/28 01:35:58;;;;;;;;;;;;;;;;;;2081213;28;19913;-79
2021/12/28 01:36:58;;;;;;;;;;;;;;;;;;2081616;28;20022;-78
2021/12/28 01:38:14;;;;;;;;;;;;;;;;;;2081525;28;19921;-78
2021/12/28 01:39:15;;;;;;;;;;;;;;;;;;2081593;28;20393;-78
2021/12/28 01:40:20;;;;;;;;;;;;;;;;;;2081498;28;19913;-78
2021/12/28 01:41:20;;;;;;;;;;;;;;;;;;2081573;28;19917;-78
2021/12/28 01:42:20;;;;;;;;;;;;;;;;;;2081443;28;20012;-78
2021/12/28 01:43:22;;;;;;;;;;;;;;;;;;2080981;28;19918;-78
2021/12/28 01:44:22;;;;;;;;;;;;;;;;;;2081086;28;19913;-78
2021/12/28 01:45:33;;;;;;;;;;;;;;;;;;2081648;28;19928;-78
2021/12/28 01:46:34;;;;;;;;;;;;;;;;;;2081460;28;19948;-78
2021/12/28 01:47:37;;;;;;;;;;;;;;;;;;2081542;28;19979;-78
2021/12/28 01:48:41;;;;;;;;;;;;;;;;;;2081552;28;19921;-79
2021/12/28 01:49:42;;;;;;;;;;;;;;;;;;2081522;28;20320;-77
2021/12/28 01:50:53;;;;;;;;;;;;;;;;;;2081473;28;19917;-79
2021/12/28 01:52:07;;;;;;;;;;;;;;;;;;2080941;28;20343;-79
2021/12/28 01:53:07;;;;;;;;;;;;;;;;;;2079836;28;19979;-76
2021/12/28 01:54:07;;;;;;;;;;;;;;;;;;2081417;28;20286;-77
2021/12/28 01:55:08;;;;;;;;;;;;;;;;;;2081458;28;19913;-76
2021/12/28 01:56:10;;;;;;;;;;;;;;;;;;2081606;28;19913;-76
2021/12/28 01:57:10;;;;;;;;;;;;;;;;;;2081302;28;20277;-77
2021/12/28 01:58:10;;;;;;;;;;;;;;;;;;2081561;28;19913;-76
2021/12/28 01:59:12;;;;;;;;;;;;;;;;;;2079573;28;19913;-78
2021/12/28 02:00:13;;;;;;;;;;;;;;;;;;2081050;28;20275;-77
2021/12/28 02:01:13;;;;;;;;;;;;;;;;;;2081329;28;19959;-78
2021/12/28 02:02:14;;;;;;;;;;;;;;;;;;2081488;28;19917;-78
2021/12/28 02:03:16;;;;;;;;;;;;;;;;;;2081393;28;20358;-76
2021/12/28 02:04:21;;;;;;;;;;;;;;;;;;2081518;28;19924;-76
2021/12/28 02:05:21;;;;;;;;;;;;;;;;;;2081381;28;19994;-77
2021/12/28 02:06:25;;;;;;;;;;;;;;;;;;2081413;28;20369;-77
2021/12/28 02:07:25;;;;;;;;;;;;;;;;;;2081405;28;19913;-78
2021/12/28 02:08:25;;;;;;;;;;;;;;;;;;2081585;28;20003;-77
2021/12/28 02:09:26;;;;;;;;;;;;;;;;;;2081324;28;20000;-78
2021/12/28 02:10:26;;;;;;;;;;;;;;;;;;2082706;28;19913;-78
2021/12/28 02:11:26;;;;;;;;;;;;;;;;;;2082909;28;19929;-78
2021/12/28 02:12:30;;;;;;;;;;;;;;;;;;2082610;28;20111;-78
2021/12/28 02:13:30;;;;;;;;;;;;;;;;;;2074253;28;20302;-78
2021/12/28 02:14:30;;;;;;;;;;;;;;;;;;2074480;28;19913;-78
2021/12/28 02:15:31;;;;;;;;;;;;;;;;;;2082921;28;19944;-78
2021/12/28 02:16:32;;;;;;;;;;;;;;;;;;2083010;28;19913;-78
2021/12/28 02:17:33;;;;;;;;;;;;;;;;;;2083091;28;19913;-78
2021/12/28 02:18:34;;;;;;;;;;;;;;;;;;2082899;28;19921;-78
2021/12/28 02:19:34;;;;;;;;;;;;;;;;;;2082905;28;20600;-78
2021/12/28 02:20:36;;;;;;;;;;;;;;;;;;2082956;28;19913;-78
2021/12/28 02:21:37;;;;;;;;;;;;;;;;;;2082861;28;19917;-78
2021/12/28 02:22:37;;;;;;;;;;;;;;;;;;2074183;28;19948;-78
2021/12/28 02:23:38;;;;;;;;;;;;;;;;;;2074293;28;19982;-78
2021/12/28 02:24:38;;;;;;;;;;;;;;;;;;2082892;28;19916;-78
2021/12/28 02:25:39;;;;;;;;;;;;;;;;;;2082756;28;19921;-78
2021/12/28 02:26:40;;;;;;;;;;;;;;;;;;2082393;28;20318;-78
2021/12/28 02:27:40;;;;;;;;;;;;;;;;;;2082451;28;19961;-78
2021/12/28 02:28:41;;;;;;;;;;;;;;;;;;2074326;28;19956;-78
2021/12/28 02:29:41;;;;;;;;;;;;;;;;;;2082909;28;19917;-78
2021/12/28 02:30:43;;;;;;;;;;;;;;;;;;2082927;28;20527;-77
2021/12/28 02:31:43;;;;;;;;;;;;;;;;;;2082826;28;19991;-78
2021/12/28 02:32:44;;;;;;;;;;;;;;;;;;2082782;28;20070;-78
2021/12/28 02:33:45;;;;;;;;;;;;;;;;;;2082815;28;20331;-78
2021/12/28 02:34:46;;;;;;;;;;;;;;;;;;2082872;28;20682;-78
2021/12/28 02:35:46;;;;;;;;;;;;;;;;;;2082843;28;19921;-78
2021/12/28 02:36:46;;;;;;;;;;;;;;;;;;2082709;28;19913;-78
2021/12/28 02:37:47;;;;;;;;;;;;;;;;;;2082864;28;20266;-78
2021/12/28 02:38:47;;;;;;;;;;;;;;;;;;2082774;28;19913;-77
2021/12/28 02:39:48;;;;;;;;;;;;;;;;;;2082791;28;19923;-78
2021/12/28 02:40:48;;;;;;;;;;;;;;;;;;2082748;28;20408;-78
2021/12/28 02:41:48;;;;;;;;;;;;;;;;;;2082299;28;20353;-78
2021/12/28 02:42:49;;;;;;;;;;;;;;;;;;2074012;28;19906;-78
2021/12/28 02:43:50;;;;;;;;;;;;;;;;;;2074228;28;19969;-78
2021/12/28 02:45:02;;;;;;;;;;;;;;;;;;2082769;28;20074;-78
2021/12/28 02:46:05;;;;;;;;;;;;;;;;;;2082740;28;19913;-78
2021/12/28 02:47:05;;;;;;;;;;;;;;;;;;2082265;28;20527;-78
2021/12/28 02:48:06;;;;;;;;;;;;;;;;;;2082205;28;20012;-78
2021/12/28 02:49:06;;;;;;;;;;;;;;;;;;2074067;28;19957;-78
2021/12/28 02:50:09;;;;;;;;;;;;;;;;;;2082793;28;19913;-78
2021/12/28 02:51:12;;;;;;;;;;;;;;;;;;2082548;28;19913;-78
2021/12/28 02:52:13;;;;;;;;;;;;;;;;;;2082729;28;19975;-78
2021/12/28 02:53:13;;;;;;;;;;;;;;;;;;2082693;28;19921;-78
2021/12/28 02:54:13;;;;;;;;;;;;;;;;;;2082689;28;19920;-78
2021/12/28 02:55:15;;;;;;;;;;;;;;;;;;2082663;28;19913;-78
2021/12/28 02:56:16;;;;;;;;;;;;;;;;;;2082699;28;19914;-78
2021/12/28 02:57:17;;;;;;;;;;;;;;;;;;2082614;28;19913;-78
2021/12/28 02:58:34;;;;;;;;;;;;;;;;;;2082726;28;20267;-78
2021/12/28 02:59:43;;;;;;;;;;;;;;;;;;2082607;28;19917;-78
2021/12/28 03:00:46;;;;;;;;;;;;;;;;;;2082659;28;19925;-78
2021/12/28 03:01:46;;;;;;;;;;;;;;;;;;2082117;28;20385;-78
2021/12/28 03:02:46;;;;;;;;;;;;;;;;;;2082213;28;19913;-78
2021/12/28 03:03:49;;;;;;;;;;;;;;;;;;2073862;28;19980;-78
2021/12/28 03:04:49;;;;;;;;;;;;;;;;;;2073729;28;19952;-78
2021/12/28 03:05:51;;;;;;;;;;;;;;;;;;2073922;28;19921;-78
2021/12/28 03:06:51;;;;;;;;;;;;;;;;;;2082787;28;19913;-78
2021/12/28 03:07:51;;;;;;;;;;;;;;;;;;2073926;28;20563;-78
2021/12/28 03:08:54;;;;;;;;;;;;;;;;;;2074044;28;20027;-78
2021/12/28 03:09:54;;;;;;;;;;;;;;;;;;2073734;28;19922;-78
2021/12/28 03:10:55;;;;;;;;;;;;;;;;;;2065869;28;20323;-78
2021/12/28 03:11:55;;;;;;;;;;;;;;;;;;2073799;28;20019;-78
2021/12/28 03:12:55;;;;;;;;;;;;;;;;;;2082609;28;20027;-78
2021/12/28 03:13:58;;;;;;;;;;;;;;;;;;2082506;28;19917;-78
2021/12/28 03:14:58;;;;;;;;;;;;;;;;;;2082633;28;19913;-78
2021/12/28 03:16:02;;;;;;;;;;;;;;;;;;2082491;28;20252;-78
2021/12/28 03:17:04;;;;;;;;;;;;;;;;;;2082564;28;19949;-78
2021/12/28 03:18:04;;;;;;;;;;;;;;;;;;2082567;28;20011;-78
2021/12/28 03:19:04;;;;;;;;;;;;;;;;;;2082023;28;19960;-77
2021/12/28 03:20:05;;;;;;;;;;;;;;;;;;2082059;28;20513;-77
2021/12/28 03:21:06;;;;;;;;;;;;;;;;;;2073259;28;19917;-77
2021/12/28 03:22:07;;;;;;;;;;;;;;;;;;2073044;28;19914;-76
2021/12/28 03:23:07;;;;;;;;;;;;;;;;;;2082034;28;20400;-78
2021/12/28 03:24:10;;;;;;;;;;;;;;;;;;2081872;28;19913;-78
2021/12/28 03:25:11;;;;;;;;;;;;;;;;;;2074304;28;19913;-78
2021/12/28 03:26:12;;;;;;;;;;;;;;;;;;2082353;28;20439;-78
2021/12/28 03:27:12;;;;;;;;;;;;;;;;;;2082425;28;20378;-78
2021/12/28 03:28:23;;;;;;;;;;;;;;;;;;2082489;28;19921;-78
2021/12/28 03:29:43;;;;;;;;;;;;;;;;;;2082620;28;20334;-78
2021/12/28 03:30:44;;;;;;;;;;;;;;;;;;2081822;28;19974;-78
2021/12/28 03:31:52;;;;;;;;;;;;;;;;;;2073740;28;19983;-78
2021/12/28 03:32:55;;;;;;;;;;;;;;;;;;2074763;28;19914;-78
2021/12/28 03:33:55;;;;;;;;;;;;;;;;;;2082422;28;20020;-78
2021/12/28 03:34:56;;;;;;;;;;;;;;;;;;2082397;28;20358;-78
2021/12/28 03:35:56;;;;;;;;;;;;;;;;;;2082422;28;20377;-78
2021/12/28 03:36:59;;;;;;;;;;;;;;;;;;2082285;28;20360;-78
2021/12/28 03:37:59;;;;;;;;;;;;;;;;;;2082414;28;19913;-78
2021/12/28 03:39:00;;;;;;;;;;;;;;;;;;2082313;28;20270;-78
2021/12/28 03:40:03;;;;;;;;;;;;;;;;;;2082382;28;19927;-78
2021/12/28 03:41:07;;;;;;;;;;;;;;;;;;2082234;28;19976;-78
2021/12/28 03:42:08;;;;;;;;;;;;;;;;;;2082308;28;19913;-78
2021/12/28 03:43:08;;;;;;;;;;;;;;;;;;2082281;28;19924;-78
2021/12/28 03:44:08;;;;;;;;;;;;;;;;;;2082415;28;20326;-78
2021/12/28 03:45:10;;;;;;;;;;;;;;;;;;2082278;28;20274;-78
2021/12/28 03:46:15;;;;;;;;;;;;;;;;;;2082312;28;19909;-78
2021/12/28 03:47:15;;;;;;;;;;;;;;;;;;2081797;28;19913;-78
2021/12/28 03:48:16;;;;;;;;;;;;;;;;;;2081848;28;20336;-78
2021/12/28 03:49:16;;;;;;;;;;;;;;;;;;2082272;28;19936;-78
2021/12/28 03:50:19;;;;;;;;;;;;;;;;;;2081853;28;19913;-78
2021/12/28 03:51:19;;;;;;;;;;;;;;;;;;2081772;28;19923;-78
2021/12/28 03:52:19;;;;;;;;;;;;;;;;;;2082313;28;19935;-78
2021/12/28 03:53:19;;;;;;;;;;;;;;;;;;2082246;28;19913;-78
2021/12/28 03:54:20;;;;;;;;;;;;;;;;;;2082146;28;19913;-78
2021/12/28 03:55:21;;;;;;;;;;;;;;;;;;2082316;28;20278;-78
2021/12/28 03:56:22;;;;;;;;;;;;;;;;;;2082093;28;19925;-78
2021/12/28 03:57:22;;;;;;;;;;;;;;;;;;2082263;28;20327;-78
2021/12/28 03:58:22;;;;;;;;;;;;;;;;;;2082183;28;20334;-77
2021/12/28 03:59:23;;;;;;;;;;;;;;;;;;2082247;28;20204;-78
2021/12/28 04:00:23;;;;;;;;;;;;;;;;;;2082173;28;20003;-78
2021/12/28 04:01:25;;;;;;;;;;;;;;;;;;2082155;28;19917;-77
2021/12/28 04:02:25;;;;;;;;;;;;;;;;;;2082075;28;19981;-77
2021/12/28 04:03:26;;;;;;;;;;;;;;;;;;2082078;28;20087;-77
2021/12/28 04:04:28;;;;;;;;;;;;;;;;;;2082086;28;19983;-77
2021/12/28 04:05:29;;;;;;;;;;;;;;;;;;2082025;28;19917;-77
2021/12/28 04:06:30;;;;;;;;;;;;;;;;;;2082079;28;19948;-78
2021/12/28 04:09:03;;;;;;;;;;;;;;;;;;2069065;28;20594;-77
2021/12/28 04:10:05;;;;;;;;;;;;;;;;;;2082136;28;20011;-77
2021/12/28 04:11:25;;;;;;;;;;;;;;;;;;2082078;28;19960;-77
2021/12/28 04:12:26;;;;;;;;;;;;;;;;;;2081920;28;20305;-77
2021/12/28 04:13:27;;;;;;;;;;;;;;;;;;2082049;28;19986;-77
2021/12/28 04:14:30;;;;;;;;;;;;;;;;;;2081968;28;20014;-77
2021/12/28 04:15:30;;;;;;;;;;;;;;;;;;2082095;28;19917;-77
2021/12/28 04:16:31;;;;;;;;;;;;;;;;;;2082104;28;20252;-77
2021/12/28 04:17:33;;;;;;;;;;;;;;;;;;2081664;28;19913;-77
2021/12/28 04:18:33;;;;;;;;;;;;;;;;;;2081525;28;19948;-77
2021/12/28 04:19:34;;;;;;;;;;;;;;;;;;2082080;28;19917;-79
2021/12/28 04:20:34;;;;;;;;;;;;;;;;;;2081997;28;20393;-77
2021/12/28 04:21:35;;;;;;;;;;;;;;;;;;2081981;28;20000;-79
2021/12/28 04:22:35;;;;;;;;;;;;;;;;;;2081962;28;20369;-79
2021/12/28 04:23:36;;;;;;;;;;;;;;;;;;2081966;28;19923;-79
2021/12/28 04:24:37;;;;;;;;;;;;;;;;;;2081699;28;20495;-79
2021/12/28 04:25:37;;;;;;;;;;;;;;;;;;2081470;28;20004;-78
2021/12/28 04:26:37;;;;;;;;;;;;;;;;;;2082043;28;20259;-77
2021/12/28 04:27:37;;;;;;;;;;;;;;;;;;2081887;28;19971;-79
2021/12/28 04:28:38;;;;;;;;;;;;;;;;;;2082054;28;19913;-79
2021/12/28 04:29:38;;;;;;;;;;;;;;;;;;2081949;28;19924;-78
2021/12/28 04:30:38;;;;;;;;;;;;;;;;;;2081970;28;19913;-79
2021/12/28 04:31:39;;;;;;;;;;;;;;;;;;2081857;28;19986;-78
2021/12/28 04:32:39;;;;;;;;;;;;;;;;;;2081588;28;19921;-77
2021/12/28 04:33:40;;;;;;;;;;;;;;;;;;2081945;28;19957;-78
2021/12/28 04:34:40;;;;;;;;;;;;;;;;;;2081981;28;19920;-77
2021/12/28 04:35:41;;;;;;;;;;;;;;;;;;2081252;28;19955;-78
2021/12/28 04:36:41;;;;;;;;;;;;;;;;;;2081722;28;19913;-77
2021/12/28 04:37:41;;;;;;;;;;;;;;;;;;2081831;28;19924;-78
2021/12/28 04:38:43;;;;;;;;;;;;;;;;;;2081954;28;20358;-77
2021/12/28 04:39:43;;;;;;;;;;;;;;;;;;2081829;28;19920;-77
2021/12/28 04:40:43;;;;;;;;;;;;;;;;;;2081984;28;19951;-77
2021/12/28 04:41:44;;;;;;;;;;;;;;;;;;2081773;28;20075;-77
2021/12/28 04:42:44;;;;;;;;;;;;;;;;;;2081796;28;20278;-77
2021/12/28 04:43:46;;;;;;;;;;;;;;;;;;2081891;28;19956;-77
2021/12/28 04:44:49;;;;;;;;;;;;;;;;;;2081827;28;19988;-77
2021/12/28 04:45:50;;;;;;;;;;;;;;;;;;2081677;28;20008;-78
2021/12/28 04:46:51;;;;;;;;;;;;;;;;;;2081880;28;19924;-77
2021/12/28 04:47:52;;;;;;;;;;;;;;;;;;2081765;28;19971;-79
2021/12/28 04:48:52;;;;;;;;;;;;;;;;;;2081817;28;19979;-78
2021/12/28 04:49:52;;;;;;;;;;;;;;;;;;2081748;28;19913;-79
2021/12/28 04:50:53;;;;;;;;;;;;;;;;;;2081807;28;19917;-79
2021/12/28 04:51:53;;;;;;;;;;;;;;;;;;2081099;28;19921;-79
2021/12/28 04:52:57;;;;;;;;;;;;;;;;;;2081329;28;19960;-79
2021/12/28 04:54:00;;;;;;;;;;;;;;;;;;2081730;28;19913;-79
2021/12/28 04:55:00;;;;;;;;;;;;;;;;;;2081916;28;19992;-79
2021/12/28 04:56:00;;;;;;;;;;;;;;;;;;2081729;28;20321;-79
2021/12/28 04:57:00;;;;;;;;;;;;;;;;;;2081230;28;20342;-79
2021/12/28 04:58:01;;;;;;;;;;;;;;;;;;2081453;28;20334;-79
2021/12/28 04:59:01;;;;;;;;;;;;;;;;;;2073123;28;19913;-78
2021/12/28 05:00:02;;;;;;;;;;;;;;;;;;2073219;28;20000;-79
2021/12/28 05:01:03;;;;;;;;;;;;;;;;;;2081680;28;19913;-78
2021/12/28 05:02:03;;;;;;;;;;;;;;;;;;2081858;28;20013;-78
2021/12/28 05:03:03;;;;;;;;;;;;;;;;;;2081718;28;20322;-77
2021/12/28 05:04:05;;;;;;;;;;;;;;;;;;2081732;28;20015;-78
2021/12/28 05:05:05;;;;;;;;;;;;;;;;;;2081065;28;20521;-78
2021/12/28 05:06:05;;;;;;;;;;;;;;;;;;2081402;28;19913;-78
2021/12/28 05:07:06;;;;;;;;;;;;;;;;;;2081625;28;20421;-78
2021/12/28 05:08:06;;;;;;;;;;;;;;;;;;2081683;28;19924;-77
2021/12/28 05:09:08;;;;;;;;;;;;;;;;;;2081637;28;19913;-77
2021/12/28 05:10:09;;;;;;;;;;;;;;;;;;2081601;28;19975;-77
2021/12/28 05:11:10;;;;;;;;;;;;;;;;;;2081683;28;19913;-78
2021/12/28 05:12:10;;;;;;;;;;;;;;;;;;2081714;28;20296;-77
2021/12/28 05:13:10;;;;;;;;;;;;;;;;;;2081530;28;19921;-77
2021/12/28 05:14:11;;;;;;;;;;;;;;;;;;2081903;28;19979;-77
2021/12/28 05:15:11;;;;;;;;;;;;;;;;;;2081207;28;19924;-77
2021/12/28 05:16:15;;;;;;;;;;;;;;;;;;2081310;28;20047;-78
2021/12/28 05:17:15;;;;;;;;;;;;;;;;;;2081718;28;19913;-77
2021/12/28 05:18:18;;;;;;;;;;;;;;;;;;2081348;28;20392;-79
2021/12/28 05:19:19;;;;;;;;;;;;;;;;;;2081280;28;19936;-78
2021/12/28 05:20:19;;;;;;;;;;;;;;;;;;2081708;28;20374;-79
2021/12/28 05:21:19;;;;;;;;;;;;;;;;;;2081589;28;19924;-79
2021/12/28 05:22:19;;;;;;;;;;;;;;;;;;2081635;28;19924;-79
2021/12/28 05:23:20;;;;;;;;;;;;;;;;;;2081786;28;19924;-78
2021/12/28 05:24:20;;;;;;;;;;;;;;;;;;2081784;28;20346;-79
2021/12/28 05:25:20;;;;;;;;;;;;;;;;;;2081523;28;20032;-79
2021/12/28 05:26:21;;;;;;;;;;;;;;;;;;2081546;28;19952;-77
2021/12/28 05:27:21;;;;;;;;;;;;;;;;;;2081564;28;19967;-79
2021/12/28 05:28:21;;;;;;;;;;;;;;;;;;2072932;28;19917;-78
2021/12/28 05:29:22;;;;;;;;;;;;;;;;;;2073080;28;19914;-79
2021/12/28 05:30:22;;;;;;;;;;;;;;;;;;2081367;28;19913;-78
2021/12/28 05:31:25;;;;;;;;;;;;;;;;;;2081523;28;19983;-78
2021/12/28 05:32:26;;;;;;;;;;;;;;;;;;2081009;28;19924;-78
2021/12/28 05:33:26;;;;;;;;;;;;;;;;;;2081037;28;19917;-78
2021/12/28 05:34:26;;;;;;;;;;;;;;;;;;2072924;28;19913;-78
2021/12/28 05:35:26;;;;;;;;;;;;;;;;;;2081495;28;20506;-78
2021/12/28 05:36:27;;;;;;;;;;;;;;;;;;2081561;28;19913;-78
2021/12/28 05:37:27;;;;;;;;;;;;;;;;;;2081591;28;20425;-79
2021/12/28 05:38:27;;;;;;;;;;;;;;;;;;2081503;28;19924;-79
2021/12/28 05:39:28;;;;;;;;;;;;;;;;;;2081561;28;20255;-79
2021/12/28 05:40:28;;;;;;;;;;;;;;;;;;2081449;28;19913;-78
2021/12/28 05:41:28;;;;;;;;;;;;;;;;;;2081697;28;19940;-78
2021/12/28 05:42:29;;;;;;;;;;;;;;;;;;2081526;28;19913;-78
2021/12/28 05:43:29;;;;;;;;;;;;;;;;;;2081638;28;19913;-78
2021/12/28 05:44:32;;;;;;;;;;;;;;;;;;2081525;28;19978;-78
2021/12/28 05:45:32;;;;;;;;;;;;;;;;;;2083044;28;19913;-78
2021/12/28 05:46:33;;;;;;;;;;;;;;;;;;2083288;28;20381;-78
2021/12/28 05:47:33;;;;;;;;;;;;;;;;;;2083369;28;19913;-78
2021/12/28 05:48:33;;;;;;;;;;;;;;;;;;2083161;28;19923;-78
2021/12/28 05:49:34;;;;;;;;;;;;;;;;;;2083190;28;20007;-78
2021/12/28 05:50:34;;;;;;;;;;;;;;;;;;2083269;28;20307;-78
2021/12/28 05:51:34;;;;;;;;;;;;;;;;;;2082853;28;19964;-78
2021/12/28 05:52:35;;;;;;;;;;;;;;;;;;2082562;28;19913;-78
2021/12/28 05:53:35;;;;;;;;;;;;;;;;;;2074639;28;19954;-77
2021/12/28 05:54:35;;;;;;;;;;;;;;;;;;2082618;28;19924;-78
2021/12/28 05:55:36;;;;;;;;;;;;;;;;;;2082644;28;19913;-78
2021/12/28 05:56:36;;;;;;;;;;;;;;;;;;2074561;28;19948;-78
2021/12/28 05:57:37;;;;;;;;;;;;;;;;;;2074545;28;19914;-78
2021/12/28 05:58:37;;;;;;;;;;;;;;;;;;2083243;28;19967;-78
2021/12/28 05:59:38;;;;;;;;;;;;;;;;;;2083113;28;20498;-78
2021/12/28 06:00:38;;;;;;;;;;;;;;;;;;2082600;28;20322;-77
2021/12/28 06:01:38;;;;;;;;;;;;;;;;;;2082677;28;20414;-76
2021/12/28 06:02:39;;;;;;;;;;;;;;;;;;2083184;28;19913;-77
2021/12/28 06:03:39;;;;;;;;;;;;;;;;;;2083121;28;19914;-78
2021/12/28 06:04:39;;;;;;;;;;;;;;;;;;2083143;28;19999;-78
2021/12/28 06:05:42;;;;;;;;;;;;;;;;;;2082826;28;20333;-77
2021/12/28 06:06:42;;;;;;;;;;;;;;;;;;2082613;28;20364;-77
2021/12/28 06:07:42;;;;;;;;;;;;;;;;;;2082213;28;19913;-78
2021/12/28 06:08:43;;;;;;;;;;;;;;;;;;2083191;28;19917;-76
2021/12/28 06:09:43;;;;;;;;;;;;;;;;;;2083017;28;19913;-78
2021/12/28 06:10:43;;;;;;;;;;;;;;;;;;2083228;28;20354;-79
2021/12/28 06:11:44;;;;;;;;;;;;;;;;;;2082828;28;20627;-78
2021/12/28 06:12:44;;;;;;;;;;;;;;;;;;2082650;28;20289;-79
2021/12/28 06:13:45;;;;;;;;;;;;;;;;;;2082574;28;19917;-77
2021/12/28 06:14:45;;;;;;;;;;;;;;;;;;2082994;28;19913;-78
2021/12/28 06:15:45;;;;;;;;;;;;;;;;;;2082904;28;19952;-78
2021/12/28 06:16:46;;;;;;;;;;;;;;;;;;2083009;28;19924;-79
2021/12/28 06:17:46;;;;;;;;;;;;;;;;;;2082972;28;19913;-79
2021/12/28 06:18:46;;;;;;;;;;;;;;;;;;2083098;28;20282;-79
2021/12/28 06:19:47;;;;;;;;;;;;;;;;;;2082242;28;19913;-78
2021/12/28 06:20:47;;;;;;;;;;;;;;;;;;2083165;28;19921;-79
2021/12/28 06:21:47;;;;;;;;;;;;;;;;;;2083133;28;20358;-79
2021/12/28 06:22:48;;;;;;;;;;;;;;;;;;2085109;28;19917;-79
2021/12/28 06:23:48;;;;;;;;;;;;;;;;;;2081964;28;19999;-78
2021/12/28 06:24:49;;;;;;;;;;;;;;;;;;2085338;28;19917;-79
2021/12/28 06:25:50;;;;;;;;;;;;;;;;;;2083711;28;19943;-78
2021/12/28 06:26:50;;;;;;;;;;;;;;;;;;2083581;28;19982;-77
2021/12/28 06:27:50;;;;;;;;;;;;;;;;;;2081900;28;19987;-78
2021/12/28 06:28:51;;;;;;;;;;;;;;;;;;2083664;28;19952;-78
2021/12/28 06:29:51;;;;;;;;;;;;;;;;;;2084131;28;20400;-78
2021/12/28 06:30:53;;;;;;;;;;;;;;;;;;2079850;28;19913;-79
2021/12/28 06:31:53;;;;;;;;;;;;;;;;;;2081888;28;19917;-79
2021/12/28 06:32:54;;;;;;;;;;;;;;;;;;2082144;28;19928;-78
2021/12/28 06:33:57;;;;;;;;;;;;;;;;;;2082908;28;20545;-78
2021/12/28 06:34:58;;;;;;;;;;;;;;;;;;2082869;28;19913;-79
2021/12/28 06:35:58;;;;;;;;;;;;;;;;;;2082258;28;19921;-78
2021/12/28 06:36:58;;;;;;;;;;;;;;;;;;2082413;28;19913;-79
2021/12/28 06:37:59;;;;;;;;;;;;;;;;;;2082772;28;20351;-79
2021/12/28 06:38:59;;;;;;;;;;;;;;;;;;2082145;28;19913;-79
2021/12/28 06:40:00;;;;;;;;;;;;;;;;;;2082817;28;19913;-79
2021/12/28 06:41:00;;;;;;;;;;;;;;;;;;2082311;28;19913;-78
2021/12/28 06:42:00;;;;;;;;;;;;;;;;;;2074314;28;19918;-77
2021/12/28 06:43:00;;;;;;;;;;;;;;;;;;2075245;28;19917;-77
2021/12/28 06:44:01;;;;;;;;;;;;;;;;;;2075438;28;19936;-77
2021/12/28 06:45:02;;;;;;;;;;;;;;;;;;2074636;28;19928;-78
2021/12/28 06:46:02;;;;;;;;;;;;;;;;;;2080396;28;19914;-77
2021/12/28 06:47:02;;;;;;;;;;;;;;;;;;2078171;28;19913;-78
2021/12/28 06:48:03;;;;;;;;;;;;;;;;;;2079019;28;19913;-78
2021/12/28 06:49:03;;;;;;;;;;;;;;;;;;2080241;28;19913;-77
2021/12/28 06:50:04;;;;;;;;;;;;;;;;;;2084194;28;19997;-79
2021/12/28 06:51:06;;;;;;;;;;;;;;;;;;2081883;28;19925;-79
2021/12/28 06:52:06;;;;;;;;;;;;;;;;;;2083281;28;19939;-78
2021/12/28 06:53:07;;;;;;;;;;;;;;;;;;2082980;28;19948;-75
2021/12/28 06:54:07;;;;;;;;;;;;;;;;;;2086071;28;19917;-78
2021/12/28 06:55:08;;;;;;;;;;;;;;;;;;2087747;28;19912;-79
2021/12/28 06:56:08;;;;;;;;;;;;;;;;;;2076742;28;20443;-79
2021/12/28 06:57:10;;;;;;;;;;;;;;;;;;2084542;28;20016;-79
2021/12/28 06:58:13;;;;;;;;;;;;;;;;;;2071818;28;19991;-79
2021/12/28 06:59:16;;;;;;;;;;;;;;;;;;2071745;28;20355;-79
2021/12/28 07:00:17;;;;;;;;;;;;;;;;;;2081452;28;19913;-78
2021/12/28 07:01:18;;;;;;;;;;;;;;;;;;2083674;28;19916;-78
2021/12/28 07:02:18;;;;;;;;;;;;;;;;;;2080497;28;19936;-76